»·PEaware :: N316AL KNFG-KBLH

N316AL :: KNFG-KBLH

FLIGHT INFORMATION

Flight Status: Arrived
Operator: Privately registered:
United States
More flights under this callsign
Pilot: Taylor N. (13554)
Aircraft: Unknown
(EPIC)
More flights by this aircraft type
Origin: KNFG Camp Pendleton MCAS
United States
Destination: KBLH Blythe
United States
More flights between these airports :: More routes between these airports
Route: ROBNN V208 JLI V460 BLH
File this flight plan on PilotEdge
Remarks:
Altitude:
(Current/Filed)
13,000ft
Speed:
(Current/Filed)
300kts
Departed: 22-Feb-17 10:17 PM
Arrived: 22-Feb-17 10:50 PM
Distance/Time
Traveled:
134nm/0:33
Distance/Time
To Go:
Arrived

Flight Plot

Page will automatically refresh every two minutes.

Flight plan parsing failed; only flown route is shown


Map Options




Map Legend


Flown Route
Filed Route
Departure Airport
Arrival Airport
Navaid (VOR, NDB)
Fix

Horizontal Profiles

Position Reports

Time Latitude Longitude Heading Altitude Ground
Speed
22-Feb-17 21:51 33.304928 -117.346056 320 82ft 0kts
22-Feb-17 21:52 33.304928 -117.346056 320 82ft 0kts
22-Feb-17 21:53 33.304928 -117.346056 320 82ft 0kts
22-Feb-17 21:54 33.304928 -117.346056 320 82ft 0kts
22-Feb-17 21:55 33.304928 -117.346056 320 82ft 0kts
22-Feb-17 21:56 33.304928 -117.346056 320 82ft 0kts
22-Feb-17 21:57 33.304928 -117.346056 320 82ft 0kts
22-Feb-17 21:58 33.304928 -117.346056 320 82ft 0kts
22-Feb-17 21:59 33.304928 -117.346056 320 82ft 0kts
22-Feb-17 22:00 33.304928 -117.346056 320 82ft 0kts
22-Feb-17 22:01 33.304928 -117.346056 320 82ft 0kts
22-Feb-17 22:02 33.304928 -117.346056 320 82ft 0kts
22-Feb-17 22:03 33.304928 -117.346056 320 82ft 0kts
22-Feb-17 22:04 33.304928 -117.346056 320 82ft 0kts
22-Feb-17 22:05 33.304928 -117.346056 320 82ft 0kts
22-Feb-17 22:06 33.304928 -117.346056 320 82ft 0kts
22-Feb-17 22:07 33.304928 -117.346056 320 82ft 0kts
22-Feb-17 22:08 33.304928 -117.346056 320 82ft 0kts
22-Feb-17 22:09 33.304928 -117.346056 320 82ft 0kts
22-Feb-17 22:10 33.304928 -117.346056 320 82ft 0kts
22-Feb-17 22:11 33.304953 -117.346081 321 82ft 1kts
22-Feb-17 22:12 33.306540 -117.347527 313 82ft 0kts
22-Feb-17 22:13 33.306549 -117.347539 311 82ft 0kts
22-Feb-17 22:14 33.306549 -117.347539 311 82ft 0kts
22-Feb-17 22:15 33.306549 -117.347539 311 82ft 0kts
22-Feb-17 22:15 33.306549 -117.347539 311 82ft 0kts
22-Feb-17 22:17 33.306549 -117.347539 311 82ft 0kts
22-Feb-17 22:18 33.303267 -117.352775 224 104ft 109kts
22-Feb-17 22:18 33.274744 -117.364262 139 2033ft 167kts
22-Feb-17 22:20 33.269522 -117.305219 93 5575ft 177kts
22-Feb-17 22:21 33.256348 -117.247952 105 8301ft 199kts
22-Feb-17 22:21 33.246543 -117.196844 96 10671ft 215kts
22-Feb-17 22:22 33.234466 -117.124362 98 12957ft 255kts
22-Feb-17 22:24 33.215071 -117.011646 101 13003ft 332kts
22-Feb-17 22:24 33.199867 -116.924095 102 13001ft 342kts
22-Feb-17 22:26 33.178168 -116.799848 102 13001ft 342kts
22-Feb-17 22:26 33.171482 -116.761676 102 13001ft 342kts
22-Feb-17 22:27 33.152363 -116.652870 102 13002ft 342kts
22-Feb-17 22:28 33.164243 -116.548688 54 12992ft 339kts
22-Feb-17 22:29 33.215973 -116.457497 52 12946ft 339kts
22-Feb-17 22:30 33.270286 -116.364529 51 12872ft 343kts
22-Feb-17 22:31 33.324042 -116.273127 52 12851ft 343kts
22-Feb-17 22:32 33.378600 -116.179690 52 12852ft 342kts
22-Feb-17 22:33 33.432898 -116.086380 52 12853ft 342kts
22-Feb-17 22:34 33.487025 -115.992980 52 12853ft 342kts
22-Feb-17 22:35 33.541156 -115.899319 52 12909ft 341kts
22-Feb-17 22:36 33.594975 -115.806090 52 13010ft 341kts
22-Feb-17 22:37 33.618683 -115.698591 90 13011ft 348kts
22-Feb-17 22:38 33.616678 -115.582727 91 13011ft 348kts
22-Feb-17 22:39 33.614226 -115.471260 91 12379ft 314kts
22-Feb-17 22:40 33.611886 -115.371155 90 10690ft 290kts
22-Feb-17 22:41 33.614467 -115.278626 81 9128ft 276kts
22-Feb-17 22:42 33.616181 -115.187638 103 7418ft 295kts
22-Feb-17 22:43 33.606429 -115.092607 91 5710ft 282kts
22-Feb-17 22:44 33.603110 -115.000932 88 4006ft 269kts
22-Feb-17 22:45 33.597010 -114.918377 97 2846ft 229kts
22-Feb-17 22:46 33.584949 -114.855219 104 2396ft 208kts
22-Feb-17 22:47 33.574131 -114.785751 95 1590ft 180kts
22-Feb-17 22:48 33.571842 -114.737680 55 1150ft 122kts
22-Feb-17 22:49 33.596299 -114.716621 356 761ft 105kts
22-Feb-17 22:50 33.619165 -114.716484 84 402ft 22kts
22-Feb-17 22:51 33.618276 -114.715153 180 402ft 16kts
22-Feb-17 22:52 33.615370 -114.715159 181 402ft 16kts
22-Feb-17 22:53 33.614172 -114.711099 91 401ft 0kts
22-Feb-17 22:54 33.614172 -114.711099 91 401ft 0kts
22-Feb-17 22:55 33.614172 -114.711099 91 401ft 0kts

Navigation Log

Ident Type
Flight plan parsing failed, navigation log unavailable